Time;durP1;ratioP1;P1;durP2;ratioP2;P2;SDS_P1;SDS_P2;PMS_P1;PMS_P2;Temp;Humidity;BMP_temperature;BMP_pressure;BME280_temperature;BME280_humidity;BME280_pressure;Samples;Min_cycle;Max_cycle;Signal;HPM_P1;HPM_P2
2024/01/17 00:00:17;;;;;;;20.95;12.00;;;-2.50;68.60;;;;;;5003371;28;20232;-76
2024/01/17 00:02:46;;;;;;;25.75;11.80;;;-2.50;68.50;;;;;;5007332;28;20238;-76
2024/01/17 00:05:15;;;;;;;20.13;11.85;;;-2.50;68.40;;;;;;5004662;28;20586;-76
2024/01/17 00:07:43;;;;;;;17.02;10.88;;;-2.60;68.40;;;;;;5015302;28;20220;-76
2024/01/17 00:10:11;;;;;;;21.27;11.38;;;-2.60;68.40;;;;;;5017970;28;20293;-76
2024/01/17 00:12:39;;;;;;;20.98;11.80;;;-2.60;68.60;;;;;;5002562;28;20219;-76
2024/01/17 00:15:09;;;;;;;20.13;11.20;;;-2.60;68.80;;;;;;5001419;28;20215;-76
2024/01/17 00:17:37;;;;;;;20.52;12.15;;;-2.60;68.60;;;;;;5007942;28;20207;-76
2024/01/17 00:20:06;;;;;;;26.75;12.35;;;-2.70;68.30;;;;;;5006218;28;20215;-75
2024/01/17 00:22:34;;;;;;;28.60;13.02;;;-2.70;68.40;;;;;;5001841;28;20315;-76
2024/01/17 00:25:03;;;;;;;40.95;18.02;;;-2.80;68.50;;;;;;5012930;28;20204;-76
2024/01/17 00:27:31;;;;;;;36.28;15.85;;;-2.80;68.60;;;;;;5009233;28;20371;-76
2024/01/17 00:29:59;;;;;;;38.42;16.80;;;-2.80;68.50;;;;;;5005747;28;20200;-76
2024/01/17 00:32:31;;;;;;;25.85;13.07;;;-2.90;68.40;;;;;;5003451;28;20225;-76
2024/01/17 00:34:59;;;;;;;21.63;12.68;;;-2.90;68.60;;;;;;5017981;28;20208;-75
2024/01/17 00:37:27;;;;;;;32.20;14.73;;;-2.80;68.60;;;;;;5022989;28;20202;-76
2024/01/17 00:39:55;;;;;;;25.30;13.65;;;-2.90;68.50;;;;;;5002218;28;20212;-76
2024/01/17 00:42:23;;;;;;;26.42;13.50;;;-2.90;68.60;;;;;;5000178;28;20226;-75
2024/01/17 00:44:51;;;;;;;27.10;14.20;;;-2.90;68.80;;;;;;5005078;28;20304;-76
2024/01/17 00:47:20;;;;;;;33.60;16.98;;;-2.80;68.90;;;;;;5011807;28;20219;-76
2024/01/17 00:49:49;;;;;;;40.83;17.23;;;-2.80;69.00;;;;;;5001975;28;20239;-76
2024/01/17 00:52:17;;;;;;;28.30;15.05;;;-2.70;69.00;;;;;;5001515;28;20540;-76
2024/01/17 00:54:46;;;;;;;29.40;13.43;;;-2.70;69.10;;;;;;5002971;28;20202;-76
2024/01/17 00:57:14;;;;;;;32.90;16.60;;;-2.60;69.10;;;;;;5019651;28;20208;-76
2024/01/17 00:59:42;;;;;;;27.75;14.15;;;-2.60;69.00;;;;;;5001653;28;20210;-75
2024/01/17 01:02:10;;;;;;;26.13;11.32;;;-2.50;68.80;;;;;;5007932;28;20591;-75
2024/01/17 01:04:38;;;;;;;27.40;11.05;;;-2.60;68.70;;;;;;5001555;28;20214;-76
2024/01/17 01:07:07;;;;;;;32.83;16.38;;;-2.60;68.50;;;;;;5002378;28;20215;-76
2024/01/17 01:09:35;;;;;;;22.10;12.00;;;-2.70;68.50;;;;;;5000361;28;20216;-76
2024/01/17 01:12:03;;;;;;;27.63;13.02;;;-2.70;68.60;;;;;;4999577;28;20214;-76
2024/01/17 01:14:31;;;;;;;23.13;13.55;;;-2.80;68.70;;;;;;5010825;28;20213;-76
2024/01/17 01:16:59;;;;;;;28.83;13.57;;;-2.70;68.90;;;;;;5000511;28;20288;-76
2024/01/17 01:19:28;;;;;;;54.85;23.77;;;-2.70;69.00;;;;;;4999942;28;20225;-75
2024/01/17 01:21:56;;;;;;;41.30;20.48;;;-2.70;68.90;;;;;;5000825;28;20231;-76
2024/01/17 01:24:25;;;;;;;33.25;15.30;;;-2.60;68.90;;;;;;5016941;28;20212;-76
2024/01/17 01:26:53;;;;;;;25.50;13.73;;;-2.60;69.00;;;;;;5019066;28;20566;-76
2024/01/17 01:29:21;;;;;;;20.83;11.48;;;-2.60;69.00;;;;;;4999530;28;20232;-76
2024/01/17 01:31:49;;;;;;;22.40;11.95;;;-2.60;68.90;;;;;;5019904;28;20252;-76
2024/01/17 01:34:17;;;;;;;18.90;10.43;;;-2.60;68.90;;;;;;5018348;28;20217;-76
2024/01/17 01:36:46;;;;;;;21.48;11.95;;;-2.60;68.90;;;;;;5004721;28;20289;-76
2024/01/17 01:39:15;;;;;;;36.25;16.90;;;-2.50;68.90;;;;;;5001627;28;20210;-76
2024/01/17 01:41:44;;;;;;;40.28;17.13;;;-2.60;68.80;;;;;;5019534;28;20265;-76
2024/01/17 01:44:12;;;;;;;24.77;14.07;;;-2.60;68.60;;;;;;5004642;28;20205;-76
2024/01/17 01:46:44;;;;;;;28.45;13.60;;;-2.60;68.70;;;;;;5000784;28;20716;-76
2024/01/17 01:49:13;;;;;;;42.75;19.90;;;-2.60;68.80;;;;;;5000459;28;20228;-76
2024/01/17 01:51:44;;;;;;;22.88;12.43;;;-2.70;68.70;;;;;;5002268;28;20295;-76
2024/01/17 01:54:14;;;;;;;60.50;27.42;;;-2.70;68.70;;;;;;5000335;28;20208;-76
2024/01/17 01:56:45;;;;;;;50.08;24.48;;;-2.70;68.80;;;;;;5018293;28;20218;-77
2024/01/17 01:59:15;;;;;;;27.75;14.15;;;-2.70;68.80;;;;;;5017435;28;20212;-76
2024/01/17 02:01:43;;;;;;;37.88;16.33;;;-2.70;68.90;;;;;;5003770;28;20236;-77
2024/01/17 02:04:12;;;;;;;31.55;16.38;;;-2.60;69.10;;;;;;5001960;28;20660;-77
2024/01/17 02:06:42;;;;;;;34.45;15.73;;;-2.60;69.10;;;;;;5001185;28;20619;-77
2024/01/17 02:09:11;;;;;;;30.02;13.52;;;-2.50;69.10;;;;;;5002870;28;20224;-76
2024/01/17 02:11:40;;;;;;;34.13;16.95;;;-2.50;69.10;;;;;;5004280;28;20532;-77
2024/01/17 02:14:10;;;;;;;27.35;14.10;;;-2.50;69.00;;;;;;5000122;28;20545;-76
2024/01/17 02:16:39;;;;;;;27.73;13.35;;;-2.50;69.00;;;;;;5016158;28;20276;-77
2024/01/17 02:19:10;;;;;;;22.23;11.35;;;-2.50;69.00;;;;;;5000323;28;20212;-77
2024/01/17 02:21:38;;;;;;;21.17;11.48;;;-2.50;69.00;;;;;;5003789;28;20523;-76
2024/01/17 02:24:15;;;;;;;19.48;10.98;;;-2.50;68.90;;;;;;5002389;28;20200;-78
2024/01/17 02:26:43;;;;;;;18.20;11.02;;;-2.50;68.90;;;;;;5000389;28;20231;-78
2024/01/17 02:29:12;;;;;;;20.95;11.60;;;-2.50;68.90;;;;;;5017820;28;20375;-77
2024/01/17 02:31:41;;;;;;;21.90;11.25;;;-2.50;68.90;;;;;;5001422;28;20244;-78
2024/01/17 02:34:10;;;;;;;19.63;11.02;;;-2.60;68.80;;;;;;5009659;28;20639;-77
2024/01/17 02:36:38;;;;;;;22.85;12.23;;;-2.60;68.80;;;;;;5000816;28;20232;-78
2024/01/17 02:39:06;;;;;;;27.38;10.98;;;-2.60;68.70;;;;;;4999254;28;20214;-78
2024/01/17 02:41:35;;;;;;;20.63;11.45;;;-2.70;68.70;;;;;;5006284;28;20207;-78
2024/01/17 02:44:03;;;;;;;25.98;11.45;;;-2.70;68.80;;;;;;5003497;28;20232;-78
2024/01/17 02:46:31;;;;;;;42.45;17.90;;;-2.70;68.90;;;;;;5000017;28;20305;-76
2024/01/17 02:48:59;;;;;;;22.92;13.20;;;-2.70;68.60;;;;;;5001399;28;20225;-76
2024/01/17 02:51:27;;;;;;;24.30;12.75;;;-2.80;68.40;;;;;;5000371;28;20699;-77
2024/01/17 02:53:55;;;;;;;34.13;17.38;;;-2.90;68.60;;;;;;5000051;28;20302;-76
2024/01/17 02:56:24;;;;;;;27.70;14.40;;;-2.90;68.80;;;;;;5007594;28;20212;-77
2024/01/17 02:58:53;;;;;;;20.42;12.23;;;-2.90;68.90;;;;;;5013141;28;20224;-76
2024/01/17 03:01:21;;;;;;;20.60;10.60;;;-2.80;68.80;;;;;;5004699;28;20225;-76
2024/01/17 03:03:49;;;;;;;22.58;11.35;;;-2.80;68.80;;;;;;5004234;28;20228;-76
2024/01/17 03:06:18;;;;;;;21.63;10.95;;;-2.80;68.90;;;;;;5003444;28;20205;-76
2024/01/17 03:08:46;;;;;;;20.30;11.60;;;-2.80;69.10;;;;;;5003511;28;20226;-76
2024/01/17 03:11:14;;;;;;;23.85;11.18;;;-2.80;69.00;;;;;;5004622;28;20255;-76
2024/01/17 03:13:42;;;;;;;23.45;10.32;;;-2.80;68.90;;;;;;5005300;28;20204;-76
2024/01/17 03:16:13;;;;;;;17.13;10.80;;;-2.80;68.90;;;;;;5005092;28;20215;-77
2024/01/17 03:18:41;;;;;;;17.15;10.50;;;-2.80;68.80;;;;;;5001579;28;20208;-77
2024/01/17 03:21:09;;;;;;;20.92;11.23;;;-2.80;68.80;;;;;;5008189;28;20320;-77
2024/01/17 03:23:37;;;;;;;25.90;12.30;;;-2.80;68.80;;;;;;4999485;28;20231;-76
2024/01/17 03:26:05;;;;;;;24.30;12.50;;;-2.80;68.80;;;;;;5006909;28;20214;-76
2024/01/17 03:28:33;;;;;;;25.38;12.10;;;-2.80;68.90;;;;;;5014721;28;20223;-76
2024/01/17 03:31:02;;;;;;;22.48;11.43;;;-2.80;68.90;;;;;;5020702;28;20243;-75
2024/01/17 03:33:31;;;;;;;19.35;11.25;;;-2.80;68.90;;;;;;4998900;28;20201;-75
2024/01/17 03:35:59;;;;;;;24.42;12.25;;;-2.80;68.80;;;;;;5004142;28;20212;-76
2024/01/17 03:38:27;;;;;;;19.58;10.85;;;-2.80;68.80;;;;;;5023503;28;20215;-76
2024/01/17 03:40:56;;;;;;;22.45;13.20;;;-2.80;68.80;;;;;;5018198;28;20216;-76
2024/01/17 03:43:24;;;;;;;24.70;11.68;;;-2.80;68.80;;;;;;5008673;28;20228;-75
2024/01/17 03:45:53;;;;;;;33.80;13.32;;;-2.80;68.80;;;;;;5003999;28;20231;-76
2024/01/17 03:48:21;;;;;;;20.75;11.88;;;-2.80;68.80;;;;;;5009842;28;20548;-76
2024/01/17 03:50:51;;;;;;;21.50;11.43;;;-2.80;68.80;;;;;;5007159;28;20205;-76
2024/01/17 03:53:19;;;;;;;24.98;12.82;;;-2.80;68.70;;;;;;5013351;28;20742;-75
2024/01/17 03:55:47;;;;;;;18.50;12.70;;;-2.80;68.70;;;;;;5020000;28;20306;-76
2024/01/17 03:58:15;;;;;;;23.10;13.10;;;-2.80;68.80;;;;;;5004472;28;20212;-75
2024/01/17 04:00:45;;;;;;;27.52;12.90;;;-2.80;68.80;;;;;;5000088;28;20711;-76
2024/01/17 04:03:13;;;;;;;24.83;13.18;;;-2.80;68.90;;;;;;5002497;28;20217;-76
2024/01/17 04:05:43;;;;;;;20.77;12.18;;;-2.80;69.00;;;;;;5003769;28;20243;-76
2024/01/17 04:08:12;;;;;;;20.95;12.85;;;-2.70;69.00;;;;;;5004950;28;20282;-76
2024/01/17 04:10:40;;;;;;;28.15;12.18;;;-2.70;68.90;;;;;;5003560;28;20219;-76
2024/01/17 04:13:08;;;;;;;20.50;11.23;;;-2.70;68.90;;;;;;5008374;28;20546;-76
2024/01/17 04:15:36;;;;;;;15.50;11.38;;;-2.70;68.90;;;;;;5006460;28;20217;-76
2024/01/17 04:18:05;;;;;;;20.63;12.13;;;-2.80;68.90;;;;;;5021537;28;20226;-76
2024/01/17 04:20:33;;;;;;;23.95;12.55;;;-2.80;68.90;;;;;;5002556;28;20232;-76
2024/01/17 04:23:04;;;;;;;27.48;11.48;;;-2.70;68.90;;;;;;5003694;28;20238;-78
2024/01/17 04:25:38;;;;;;;22.10;11.27;;;-2.70;69.00;;;;;;5007230;28;20219;-77
2024/01/17 04:28:06;;;;;;;21.92;11.90;;;-2.70;69.00;;;;;;5001990;28;20605;-77
2024/01/17 04:30:35;;;;;;;19.83;12.35;;;-2.70;69.00;;;;;;5001772;28;20261;-77
2024/01/17 04:33:04;;;;;;;22.15;11.90;;;-2.70;69.00;;;;;;5022471;28;20232;-78
2024/01/17 04:35:32;;;;;;;23.83;13.20;;;-2.70;69.00;;;;;;5004997;28;20198;-78
2024/01/17 04:38:00;;;;;;;22.17;12.20;;;-2.70;69.10;;;;;;5017816;28;20241;-76
2024/01/17 04:40:28;;;;;;;21.38;12.68;;;-2.70;69.10;;;;;;5026184;28;20248;-76
2024/01/17 04:42:57;;;;;;;22.13;11.70;;;-2.70;69.20;;;;;;5006275;28;20213;-76
2024/01/17 04:45:25;;;;;;;21.88;12.73;;;-2.60;69.20;;;;;;5023582;28;20212;-77
2024/01/17 04:47:53;;;;;;;23.42;13.20;;;-2.60;69.20;;;;;;5000409;28;20213;-77
2024/01/17 04:50:21;;;;;;;22.40;12.10;;;-2.60;69.20;;;;;;5006528;28;20235;-77
2024/01/17 04:52:50;;;;;;;20.52;12.30;;;-2.60;69.10;;;;;;5006910;28;20215;-77
2024/01/17 04:55:18;;;;;;;51.42;27.67;;;-2.60;69.10;;;;;;5008951;28;20217;-77
2024/01/17 04:57:46;;;;;;;40.03;22.85;;;-2.60;69.10;;;;;;5003524;28;20213;-77
2024/01/17 05:00:16;;;;;;;35.95;20.65;;;-2.60;69.10;;;;;;5004276;28;20538;-78
2024/01/17 05:02:44;;;;;;;35.83;19.30;;;-2.70;69.10;;;;;;5006072;28;20211;-76
2024/01/17 05:05:12;;;;;;;24.40;15.70;;;-2.70;69.30;;;;;;5001911;28;20221;-76
2024/01/17 05:07:40;;;;;;;29.17;17.60;;;-2.60;69.30;;;;;;5008170;28;20238;-76
2024/01/17 05:10:09;;;;;;;27.77;18.63;;;-2.60;69.30;;;;;;5005498;28;20269;-76
2024/01/17 05:12:37;;;;;;;26.10;14.93;;;-2.60;69.40;;;;;;5004233;28;20208;-76
2024/01/17 05:15:05;;;;;;;36.55;17.55;;;-2.60;69.40;;;;;;5016473;28;20213;-76
2024/01/17 05:17:35;;;;;;;33.20;18.10;;;-2.60;69.40;;;;;;4999909;28;20212;-76
2024/01/17 05:20:03;;;;;;;30.60;17.60;;;-2.60;69.30;;;;;;5003540;28;20591;-74
2024/01/17 05:22:32;;;;;;;28.50;17.00;;;-2.60;69.40;;;;;;5014934;28;20247;-74
2024/01/17 05:25:01;;;;;;;26.45;15.50;;;-2.60;69.50;;;;;;5004400;28;20216;-74
2024/01/17 05:27:29;;;;;;;32.53;15.77;;;-2.50;69.50;;;;;;5003270;28;20683;-75
2024/01/17 05:29:57;;;;;;;33.33;14.52;;;-2.50;69.50;;;;;;5020275;28;20231;-77
2024/01/17 05:32:25;;;;;;;28.33;16.33;;;-2.50;69.50;;;;;;5005326;28;20242;-77
2024/01/17 05:34:55;;;;;;;27.25;15.18;;;-2.50;69.50;;;;;;5022077;28;20192;-77
2024/01/17 05:37:23;;;;;;;23.88;14.73;;;-2.50;69.60;;;;;;5002353;28;20208;-75
2024/01/17 05:39:53;;;;;;;28.65;14.85;;;-2.50;69.70;;;;;;5001568;28;20605;-76
2024/01/17 05:42:21;;;;;;;25.20;14.20;;;-2.50;69.80;;;;;;5010222;28;21272;-76
2024/01/17 05:44:49;;;;;;;26.67;14.57;;;-2.40;69.80;;;;;;5016998;28;20226;-76
2024/01/17 05:47:17;;;;;;;33.08;17.42;;;-2.40;69.70;;;;;;5016934;28;20564;-76
2024/01/17 05:49:45;;;;;;;21.98;14.13;;;-2.40;69.60;;;;;;4998633;28;20652;-76
2024/01/17 05:52:14;;;;;;;29.80;14.48;;;-2.40;69.70;;;;;;5018545;28;20212;-75
2024/01/17 05:54:44;;;;;;;27.30;14.95;;;-2.40;69.80;;;;;;4999817;28;20208;-76
2024/01/17 05:57:12;;;;;;;25.65;15.05;;;-2.40;69.90;;;;;;4998707;28;20206;-75
2024/01/17 05:59:41;;;;;;;25.63;16.08;;;-2.30;70.00;;;;;;5000237;28;20280;-75
2024/01/17 06:02:09;;;;;;;24.17;15.73;;;-2.30;70.00;;;;;;5001461;28;20786;-76
2024/01/17 06:04:38;;;;;;;36.55;18.98;;;-2.20;70.10;;;;;;5002720;28;20217;-76
2024/01/17 06:07:06;;;;;;;44.47;24.30;;;-2.20;70.10;;;;;;5001353;28;20596;-75
2024/01/17 06:09:35;;;;;;;44.25;24.15;;;-2.20;70.10;;;;;;5003261;28;20577;-75
2024/01/17 06:12:03;;;;;;;33.05;19.30;;;-2.20;70.10;;;;;;5000896;28;20327;-76
2024/01/17 06:14:32;;;;;;;35.22;16.23;;;-2.10;70.10;;;;;;4998520;28;20828;-75
2024/01/17 06:17:00;;;;;;;29.17;15.48;;;-2.10;70.10;;;;;;5004449;28;20313;-76
2024/01/17 06:19:28;;;;;;;28.10;15.30;;;-2.10;70.10;;;;;;5003471;28;20205;-76
2024/01/17 06:21:56;;;;;;;29.38;16.08;;;-2.10;70.20;;;;;;5000845;28;20680;-75
2024/01/17 06:24:24;;;;;;;25.02;15.88;;;-2.10;70.20;;;;;;5001214;28;20224;-75
2024/01/17 06:26:53;;;;;;;29.25;17.58;;;-2.00;70.20;;;;;;5001732;28;20206;-75
2024/01/17 06:29:29;;;;;;;28.83;17.00;;;-2.00;70.30;;;;;;5005364;28;20709;-75
2024/01/17 06:31:57;;;;;;;29.75;16.15;;;-2.00;70.20;;;;;;5006169;28;20311;-75
2024/01/17 06:34:26;;;;;;;34.17;17.45;;;-2.00;70.20;;;;;;5013911;28;20224;-75
2024/01/17 06:36:54;;;;;;;36.10;17.60;;;-2.00;70.30;;;;;;5002598;28;20206;-75
2024/01/17 06:39:23;;;;;;;30.88;17.23;;;-2.00;70.30;;;;;;5002767;28;20550;-75
2024/01/17 06:41:53;;;;;;;27.83;17.75;;;-2.00;70.30;;;;;;5015429;28;20208;-75
2024/01/17 06:44:21;;;;;;;30.35;16.50;;;-2.00;70.40;;;;;;5024178;28;20222;-76
2024/01/17 06:46:49;;;;;;;23.77;15.50;;;-2.00;70.40;;;;;;5005554;28;20210;-75
2024/01/17 06:49:17;;;;;;;32.90;17.00;;;-1.90;70.40;;;;;;5005420;28;20958;-76
2024/01/17 06:51:46;;;;;;;25.30;15.10;;;-1.90;70.40;;;;;;5025895;28;20221;-76
2024/01/17 06:54:16;;;;;;;25.55;16.58;;;-1.90;70.40;;;;;;5014540;28;20214;-75
2024/01/17 06:56:44;;;;;;;25.00;14.27;;;-1.90;70.50;;;;;;5001872;28;20628;-76
2024/01/17 06:59:14;;;;;;;28.50;16.08;;;-1.90;70.50;;;;;;5001078;28;20209;-76
2024/01/17 07:01:41;;;;;;;26.40;15.32;;;-1.90;70.60;;;;;;5004603;28;21185;-76
2024/01/17 07:04:10;;;;;;;27.23;15.27;;;-1.90;70.50;;;;;;4984941;28;20207;-76
2024/01/17 07:06:38;;;;;;;25.33;15.20;;;-1.90;70.50;;;;;;4993201;28;20203;-76
2024/01/17 07:09:07;;;;;;;24.55;14.80;;;-1.90;70.60;;;;;;4985171;28;20641;-76
2024/01/17 07:11:35;;;;;;;23.75;14.35;;;-1.90;70.60;;;;;;4981726;28;20206;-76
2024/01/17 07:14:04;;;;;;;30.42;15.40;;;-1.90;70.60;;;;;;4996788;28;20281;-76
2024/01/17 07:16:33;;;;;;;29.02;15.60;;;-1.90;70.60;;;;;;4985688;28;20202;-76
2024/01/17 07:19:01;;;;;;;36.80;22.30;;;-1.90;70.60;;;;;;4997896;28;20306;-76
2024/01/17 07:21:30;;;;;;;39.67;19.77;;;-1.90;70.70;;;;;;4984841;28;20205;-76
2024/01/17 07:23:58;;;;;;;29.33;16.30;;;-1.90;70.70;;;;;;4982849;28;20272;-76
2024/01/17 07:26:26;;;;;;;26.65;17.40;;;-1.90;70.70;;;;;;4989834;28;20237;-76
2024/01/17 07:28:54;;;;;;;30.30;18.55;;;-1.90;70.80;;;;;;5002172;28;20221;-76
2024/01/17 07:31:22;;;;;;;34.40;20.38;;;-1.90;70.90;;;;;;4996135;28;20234;-76
2024/01/17 07:33:52;;;;;;;32.15;20.17;;;-1.90;71.00;;;;;;4982509;28;20232;-76
2024/01/17 07:36:21;;;;;;;38.58;19.98;;;-1.80;71.00;;;;;;4982877;28;20269;-76
2024/01/17 07:38:49;;;;;;;37.22;19.25;;;-1.80;71.10;;;;;;4998252;28;20869;-76
2024/01/17 07:41:17;;;;;;;42.95;21.65;;;-1.80;71.10;;;;;;4982797;28;20222;-75
2024/01/17 07:43:46;;;;;;;37.92;21.35;;;-1.80;71.20;;;;;;4981030;28;20217;-76
2024/01/17 07:46:14;;;;;;;34.47;19.67;;;-1.70;71.20;;;;;;4985700;28;20222;-76
2024/01/17 07:48:42;;;;;;;33.05;18.38;;;-1.70;71.20;;;;;;4981173;28;20210;-76
2024/01/17 07:51:14;;;;;;;32.88;18.70;;;-1.70;71.20;;;;;;4995949;28;20214;-76
2024/01/17 07:53:42;;;;;;;32.08;17.52;;;-1.60;71.20;;;;;;4980303;28;20227;-76
2024/01/17 07:56:10;;;;;;;29.45;17.45;;;-1.60;71.30;;;;;;4999939;28;20733;-76
2024/01/17 07:58:38;;;;;;;31.98;16.90;;;-1.60;71.30;;;;;;4981204;28;20202;-76
2024/01/17 08:01:07;;;;;;;28.13;17.13;;;-1.60;71.40;;;;;;4977061;28;20227;-76
2024/01/17 08:03:35;;;;;;;27.70;16.98;;;-1.60;71.40;;;;;;4984754;28;20202;-76
2024/01/17 08:06:03;;;;;;;27.35;16.08;;;-1.60;71.40;;;;;;4994642;28;20710;-76
2024/01/17 08:08:33;;;;;;;32.35;16.85;;;-1.50;71.50;;;;;;4983779;28;20221;-76
2024/01/17 08:11:02;;;;;;;27.85;16.83;;;-1.50;71.50;;;;;;4995927;28;20728;-76
2024/01/17 08:13:30;;;;;;;26.55;16.48;;;-1.50;71.60;;;;;;4983308;28;20210;-75
2024/01/17 08:15:58;;;;;;;31.65;18.65;;;-1.50;71.70;;;;;;4997390;28;20220;-75
2024/01/17 08:18:28;;;;;;;35.78;23.92;;;-1.40;71.60;;;;;;4996233;28;20883;-75
2024/01/17 08:20:56;;;;;;;31.20;19.77;;;-1.40;71.60;;;;;;4983009;28;20206;-76
2024/01/17 08:23:24;;;;;;;39.78;26.25;;;-1.40;71.60;;;;;;4981801;28;20211;-76
2024/01/17 08:25:53;;;;;;;33.15;21.13;;;-1.40;71.60;;;;;;4983184;28;20226;-75
2024/01/17 08:28:21;;;;;;;35.70;22.25;;;-1.30;71.60;;;;;;4998491;28;20206;-76
2024/01/17 08:30:49;;;;;;;35.78;23.33;;;-1.40;71.60;;;;;;4993240;28;20230;-75
2024/01/17 08:33:17;;;;;;;38.63;21.55;;;-1.40;71.70;;;;;;4996431;28;20954;-75
2024/01/17 08:35:46;;;;;;;36.03;21.23;;;-1.40;71.70;;;;;;4997433;28;20203;-75
2024/01/17 08:38:13;;;;;;;34.75;21.67;;;-1.40;71.70;;;;;;4983331;28;20603;-75
2024/01/17 08:40:41;;;;;;;36.40;21.65;;;-1.50;71.90;;;;;;4983988;28;20202;-75
2024/01/17 08:43:11;;;;;;;36.00;20.08;;;-1.60;72.00;;;;;;4983897;28;20215;-76
2024/01/17 08:45:39;;;;;;;71.88;34.80;;;-1.60;72.20;;;;;;4993676;28;20223;-75
2024/01/17 08:48:07;;;;;;;51.50;29.58;;;-1.60;72.40;;;;;;4998941;28;20199;-75
2024/01/17 08:50:35;;;;;;;44.03;27.60;;;-1.60;72.50;;;;;;4982767;28;20206;-75
2024/01/17 08:53:04;;;;;;;40.92;24.05;;;-1.50;72.60;;;;;;4983436;28;20545;-75
2024/01/17 08:55:32;;;;;;;38.65;25.00;;;-1.50;72.70;;;;;;4981486;28;20202;-75
2024/01/17 08:58:00;;;;;;;39.25;24.75;;;-1.40;72.80;;;;;;4995229;28;20220;-75
2024/01/17 09:00:29;;;;;;;34.38;22.98;;;-1.40;72.90;;;;;;4999486;28;20230;-75
2024/01/17 09:02:57;;;;;;;48.25;24.05;;;-1.30;72.90;;;;;;4980143;28;20293;-75
2024/01/17 09:05:25;;;;;;;42.20;24.02;;;-1.30;72.90;;;;;;4994392;28;20219;-75
2024/01/17 09:07:53;;;;;;;42.05;24.38;;;-1.30;73.00;;;;;;4984791;28;20223;-76
2024/01/17 09:10:21;;;;;;;42.15;23.20;;;-1.30;73.10;;;;;;4991577;28;20209;-75
2024/01/17 09:12:50;;;;;;;39.15;26.65;;;-1.20;73.20;;;;;;4984948;28;20709;-75
2024/01/17 09:15:22;;;;;;;41.60;24.98;;;-1.10;73.50;;;;;;4999011;28;20309;-75
2024/01/17 09:17:51;;;;;;;43.95;25.92;;;-1.10;73.50;;;;;;4981708;28;20220;-75
2024/01/17 09:20:20;;;;;;;45.50;26.42;;;-1.10;73.50;;;;;;4979280;28;20281;-75
2024/01/17 09:22:48;;;;;;;49.10;28.02;;;-1.00;73.70;;;;;;4981777;28;20237;-75
2024/01/17 09:25:17;;;;;;;47.17;28.63;;;-1.00;73.80;;;;;;4982449;28;20202;-76
2024/01/17 09:27:45;;;;;;;40.30;26.50;;;-0.90;73.80;;;;;;4981450;28;20237;-76
2024/01/17 09:30:13;;;;;;;48.50;28.85;;;-0.90;73.90;;;;;;4999682;28;20208;-76
2024/01/17 09:32:44;;;;;;;49.78;29.85;;;-0.90;73.90;;;;;;4980533;28;20244;-75
2024/01/17 09:35:13;;;;;;;48.67;29.45;;;-0.90;73.90;;;;;;4980110;28;20294;-75
2024/01/17 09:37:41;;;;;;;59.05;28.95;;;-0.80;74.00;;;;;;4989468;28;20228;-76
2024/01/17 09:40:11;;;;;;;54.85;34.22;;;-0.80;74.00;;;;;;4998489;28;20310;-75
2024/01/17 09:42:39;;;;;;;73.20;39.25;;;-0.80;74.20;;;;;;4988373;28;20233;-75
2024/01/17 09:45:10;;;;;;;61.15;37.28;;;-0.80;74.30;;;;;;4994361;28;20682;-76
2024/01/17 09:47:41;;;;;;;51.75;33.10;;;-0.80;74.40;;;;;;4999570;28;20246;-76
2024/01/17 09:50:10;;;;;;;58.00;34.00;;;-0.70;74.40;;;;;;4996734;28;20219;-75
2024/01/17 09:52:41;;;;;;;49.20;31.60;;;-0.70;74.50;;;;;;4977938;28;20203;-75
2024/01/17 09:55:10;;;;;;;51.88;30.88;;;-0.70;74.70;;;;;;4989448;28;20226;-76
2024/01/17 09:57:46;;;;;;;63.28;35.35;;;-0.70;74.60;;;;;;4995456;28;20548;-75
2024/01/17 10:00:15;;;;;;;54.78;35.90;;;-0.70;74.70;;;;;;4997171;28;20206;-75
2024/01/17 10:02:44;;;;;;;60.20;36.03;;;-0.70;74.80;;;;;;4982209;28;20559;-75
2024/01/17 10:05:13;;;;;;;101.95;48.42;;;-0.70;75.00;;;;;;4980578;28;20273;-76
2024/01/17 10:07:45;;;;;;;91.18;42.17;;;-0.70;75.10;;;;;;4995861;28;20226;-76
2024/01/17 10:10:13;;;;;;;100.63;47.40;;;-0.70;75.20;;;;;;4987805;28;20632;-76
2024/01/17 10:12:42;;;;;;;74.47;41.03;;;-0.70;75.30;;;;;;4980433;28;20632;-76
2024/01/17 10:15:13;;;;;;;68.65;42.30;;;-0.60;75.40;;;;;;4978639;28;20210;-76
2024/01/17 10:17:41;;;;;;;66.00;39.35;;;-0.60;75.50;;;;;;4982206;28;20616;-75
2024/01/17 10:20:10;;;;;;;61.55;38.17;;;-0.60;75.50;;;;;;4980021;28;20203;-76
2024/01/17 10:22:41;;;;;;;58.38;37.55;;;-0.60;75.70;;;;;;4982169;28;20206;-75
2024/01/17 10:25:12;;;;;;;70.20;39.80;;;-0.50;75.80;;;;;;4994896;28;20207;-75
2024/01/17 10:27:40;;;;;;;69.38;40.55;;;-0.50;76.00;;;;;;4989192;28;20240;-75
2024/01/17 10:30:11;;;;;;;66.97;40.30;;;-0.40;76.10;;;;;;4980509;28;20203;-76
2024/01/17 10:32:41;;;;;;;70.43;41.17;;;-0.30;76.30;;;;;;4982724;28;20226;-75
2024/01/17 10:35:11;;;;;;;63.42;39.10;;;-0.20;76.40;;;;;;4980573;28;20500;-75
2024/01/17 10:37:39;;;;;;;67.45;37.45;;;0.00;76.50;;;;;;4982132;28;20694;-75
2024/01/17 10:40:11;;;;;;;61.35;34.22;;;0.10;76.50;;;;;;4981273;28;20207;-75
2024/01/17 10:42:41;;;;;;;61.60;35.17;;;0.20;76.40;;;;;;4982644;28;20209;-75
2024/01/17 10:45:20;;;;;;;56.88;34.28;;;0.20;76.30;;;;;;4980947;28;20677;-75
2024/01/17 10:47:48;;;;;;;56.80;32.85;;;0.20;76.30;;;;;;4983662;28;20245;-75
2024/01/17 10:50:16;;;;;;;62.05;35.42;;;0.20;76.30;;;;;;4986579;28;20220;-75
2024/01/17 10:52:47;;;;;;;56.92;32.92;;;0.20;76.30;;;;;;4999257;28;20207;-75
2024/01/17 10:55:18;;;;;;;57.97;32.22;;;0.30;76.50;;;;;;4979546;28;20249;-75
2024/01/17 10:57:54;;;;;;;61.20;34.25;;;0.30;76.40;;;;;;5000923;28;20240;-75
2024/01/17 11:00:29;;;;;;;54.17;33.70;;;0.20;76.40;;;;;;4981965;28;20260;-75
2024/01/17 11:02:59;;;;;;;56.13;30.38;;;0.20;76.60;;;;;;4985095;28;20216;-75
2024/01/17 11:05:32;;;;;;;60.33;33.80;;;0.10;76.70;;;;;;4994985;28;20230;-75
2024/01/17 11:08:00;;;;;;;59.70;35.40;;;0.10;76.80;;;;;;4981317;28;20683;-75
2024/01/17 11:10:29;;;;;;;58.13;34.90;;;0.20;76.90;;;;;;4984231;28;20620;-76
2024/01/17 11:12:59;;;;;;;57.25;36.25;;;0.10;76.90;;;;;;4983820;28;20297;-75
2024/01/17 11:15:29;;;;;;;56.60;35.80;;;0.20;77.20;;;;;;4982645;28;20207;-75
2024/01/17 11:18:00;;;;;;;58.42;35.58;;;0.20;77.20;;;;;;5006337;28;20194;-75
2024/01/17 11:20:29;;;;;;;53.22;32.63;;;0.20;77.20;;;;;;4988403;28;20646;-75
2024/01/17 11:23:03;;;;;;;58.67;34.08;;;0.20;77.30;;;;;;4985021;28;20215;-75
2024/01/17 11:25:40;;;;;;;72.93;40.47;;;0.10;77.50;;;;;;4982045;28;20269;-75
2024/01/17 11:28:20;;;;;;;63.53;38.58;;;0.10;77.50;;;;;;5000760;28;20230;-75
2024/01/17 11:31:13;;;;;;;59.58;35.97;;;0.20;77.70;;;;;;4984225;28;20253;-75
2024/01/17 11:33:43;;;;;;;64.28;37.75;;;0.20;77.80;;;;;;4983296;28;20566;-75
2024/01/17 11:36:44;;;;;;;59.95;38.03;;;0.20;77.80;;;;;;4981063;28;20220;-75
2024/01/17 11:39:12;;;;;;;64.28;37.15;;;0.20;78.00;;;;;;4984906;28;20204;-75
2024/01/17 11:41:42;;;;;;;67.35;37.35;;;0.30;77.90;;;;;;4984780;28;20210;-75
2024/01/17 11:44:13;;;;;;;63.70;35.65;;;0.30;78.10;;;;;;4985948;28;20878;-75
2024/01/17 11:46:41;;;;;;;60.22;37.35;;;0.30;78.10;;;;;;4986086;28;20272;-75
2024/01/17 11:49:14;;;;;;;68.72;41.65;;;0.30;78.20;;;;;;4981581;28;20544;-75
2024/01/17 11:51:42;;;;;;;66.65;38.85;;;0.40;78.30;;;;;;4981615;28;20207;-75
2024/01/17 11:54:12;;;;;;;71.57;39.90;;;0.40;78.30;;;;;;4995504;28;20206;-75
2024/01/17 11:56:40;;;;;;;67.93;40.03;;;0.40;78.40;;;;;;4983122;28;20200;-75
2024/01/17 11:59:12;;;;;;;62.60;38.10;;;0.50;78.50;;;;;;4999031;28;20203;-75
2024/01/17 12:01:44;;;;;;;69.10;37.08;;;0.50;78.50;;;;;;4978954;28;20230;-76
2024/01/17 12:04:13;;;;;;;65.05;41.50;;;0.50;78.50;;;;;;4984359;28;20231;-75
2024/01/17 12:06:42;;;;;;;79.07;47.38;;;0.50;78.80;;;;;;4980396;28;20643;-75
2024/01/17 12:09:17;;;;;;;73.95;42.22;;;0.60;78.70;;;;;;4985523;28;20204;-75
2024/01/17 12:11:49;;;;;;;74.72;41.38;;;0.70;78.90;;;;;;4985301;28;20225;-76
2024/01/17 12:14:18;;;;;;;72.82;48.42;;;0.70;78.80;;;;;;4996962;28;20205;-76
2024/01/17 12:16:49;;;;;;;74.55;48.33;;;0.70;78.60;;;;;;4980920;28;20308;-75
2024/01/17 12:19:19;;;;;;;67.35;40.45;;;0.70;78.70;;;;;;4984828;28;20638;-75
2024/01/17 12:21:47;;;;;;;60.25;39.30;;;0.70;78.90;;;;;;4985680;28;20210;-75
2024/01/17 12:24:15;;;;;;;57.85;35.30;;;0.70;78.90;;;;;;4985816;28;20198;-75
2024/01/17 12:26:45;;;;;;;67.63;39.53;;;0.60;79.10;;;;;;4982455;28;20199;-75
2024/01/17 12:29:14;;;;;;;66.57;37.83;;;0.70;79.00;;;;;;4982248;28;20344;-75
2024/01/17 12:31:43;;;;;;;63.58;39.17;;;0.60;79.30;;;;;;4983451;28;20255;-75
2024/01/17 12:34:12;;;;;;;69.60;42.67;;;0.60;79.30;;;;;;4986779;28;20564;-75
2024/01/17 12:36:41;;;;;;;75.03;42.00;;;0.70;79.30;;;;;;4997764;28;20230;-75